Hlavní strana
METAR-TAF:

METAR-TAF

Letiště :

Stockholm-Skavsta, Švédsko

zeměpisná šířka: 58-47N, zeměpisná délka: 016-55E, výška: 43 m

Aktuální stav počasí

Zpráva byla vytvořena před 48 minutami, v 07:50 UTC
Východní vítr 7 kt, proměnlivý mezi severovýchodním a východojihovýchodním
Teplota 16°C
Vlhkost vzduchu 55%
Tlak 1015 hPa
Viditelnost 10 km a více
Žádná oblačnost pod 1500 m, nevyskytují se cumulonimby.

METAR: ESKN 260750Z 08007KT 050V120 CAVOK 16/07 Q1015

Čas: 10:38 (08:38 UTC)

Předpověď počasí

Zpráva byla vytvořena před 3 hodinami a 8 minutami, v 05:30 UTC
Předpověď platná od 26 v 06 UTC do 27 v 06 UTC
Východoseverovýchodní vítr 8 kt
Viditelnost 10 km a více
Žádná oblačnost pod 1500 m, nevyskytují se cumulonimby.

TAF: ESKN 260530Z 2606/2706 06008KT CAVOK

Stav a předpovědi počasí z více než 4 000 letišť (zprávy METAR a TAF).

Červené a žluté tečky na mapě představují dostupné meteorologické stanice.

Když kurzor umístíte na tečku, zobrazí se název stanice.

Pak kliknutím zobrazíte stav a předpověď počasí.

Chcete-li změnit mapu, kliknutím na zelené tlačítko se znaménkem +mapu přiblížíte, kliknutím na zelené tlačítko se znaménkem – mapu oddálíte a kliknutím na zelené šipky přejdete na sousední mapy.


METAR-TAF: